sensor_id;sensor_type;location;lat;lon;timestamp;P1;durP1;ratioP1;P2;durP2;ratioP2
12088;SDS011;6107;49.078;8.578;2023-04-24T00:00:33;1.97;;;1.03;;
12088;SDS011;6107;49.078;8.578;2023-04-24T00:02:58;2.80;;;0.90;;
12088;SDS011;6107;49.078;8.578;2023-04-24T00:05:24;2.30;;;1.00;;
12088;SDS011;6107;49.078;8.578;2023-04-24T00:07:49;2.07;;;1.13;;
12088;SDS011;6107;49.078;8.578;2023-04-24T00:10:17;1.57;;;0.87;;
12088;SDS011;6107;49.078;8.578;2023-04-24T00:12:43;3.50;;;1.00;;
12088;SDS011;6107;49.078;8.578;2023-04-24T00:15:09;2.57;;;1.00;;
12088;SDS011;6107;49.078;8.578;2023-04-24T00:17:35;1.47;;;1.00;;
12088;SDS011;6107;49.078;8.578;2023-04-24T00:20:01;1.30;;;0.80;;
12088;SDS011;6107;49.078;8.578;2023-04-24T00:22:29;2.73;;;1.03;;
12088;SDS011;6107;49.078;8.578;2023-04-24T00:24:55;3.47;;;1.00;;
12088;SDS011;6107;49.078;8.578;2023-04-24T00:27:21;4.63;;;1.03;;
12088;SDS011;6107;49.078;8.578;2023-04-24T00:29:47;1.43;;;1.00;;
12088;SDS011;6107;49.078;8.578;2023-04-24T00:32:12;2.13;;;0.90;;
12088;SDS011;6107;49.078;8.578;2023-04-24T00:34:38;1.30;;;0.97;;
12088;SDS011;6107;49.078;8.578;2023-04-24T00:37:04;3.40;;;0.97;;
12088;SDS011;6107;49.078;8.578;2023-04-24T00:39:30;3.83;;;1.20;;
12088;SDS011;6107;49.078;8.578;2023-04-24T00:41:55;1.17;;;0.97;;
12088;SDS011;6107;49.078;8.578;2023-04-24T00:44:21;2.63;;;0.97;;
12088;SDS011;6107;49.078;8.578;2023-04-24T00:46:47;2.13;;;1.27;;
12088;SDS011;6107;49.078;8.578;2023-04-24T00:49:17;2.27;;;0.80;;
12088;SDS011;6107;49.078;8.578;2023-04-24T00:51:43;2.87;;;0.90;;
12088;SDS011;6107;49.078;8.578;2023-04-24T00:54:10;2.23;;;1.10;;
12088;SDS011;6107;49.078;8.578;2023-04-24T00:56:36;1.57;;;0.80;;
12088;SDS011;6107;49.078;8.578;2023-04-24T00:59:02;1.33;;;1.00;;
12088;SDS011;6107;49.078;8.578;2023-04-24T01:01:29;1.73;;;0.73;;
12088;SDS011;6107;49.078;8.578;2023-04-24T01:03:55;2.03;;;0.90;;
12088;SDS011;6107;49.078;8.578;2023-04-24T01:06:22;1.17;;;0.87;;
12088;SDS011;6107;49.078;8.578;2023-04-24T01:08:52;1.77;;;0.90;;
12088;SDS011;6107;49.078;8.578;2023-04-24T01:11:17;2.63;;;1.00;;
12088;SDS011;6107;49.078;8.578;2023-04-24T01:13:43;1.30;;;0.90;;
12088;SDS011;6107;49.078;8.578;2023-04-24T01:16:10;4.20;;;0.90;;
12088;SDS011;6107;49.078;8.578;2023-04-24T01:18:35;1.00;;;0.90;;
12088;SDS011;6107;49.078;8.578;2023-04-24T01:21:02;5.53;;;4.97;;
12088;SDS011;6107;49.078;8.578;2023-04-24T01:23:29;2.10;;;1.30;;
12088;SDS011;6107;49.078;8.578;2023-04-24T01:25:55;2.53;;;0.90;;
12088;SDS011;6107;49.078;8.578;2023-04-24T01:28:20;1.03;;;0.80;;
12088;SDS011;6107;49.078;8.578;2023-04-24T01:30:47;1.97;;;1.00;;
12088;SDS011;6107;49.078;8.578;2023-04-24T01:33:13;2.23;;;0.87;;
12088;SDS011;6107;49.078;8.578;2023-04-24T01:35:38;1.70;;;0.90;;
12088;SDS011;6107;49.078;8.578;2023-04-24T01:38:04;1.10;;;1.00;;
12088;SDS011;6107;49.078;8.578;2023-04-24T01:40:30;1.90;;;1.03;;
12088;SDS011;6107;49.078;8.578;2023-04-24T01:42:56;3.70;;;1.03;;
12088;SDS011;6107;49.078;8.578;2023-04-24T01:45:23;3.00;;;1.10;;
12088;SDS011;6107;49.078;8.578;2023-04-24T01:47:48;2.77;;;1.10;;
12088;SDS011;6107;49.078;8.578;2023-04-24T01:50:15;1.20;;;1.00;;
12088;SDS011;6107;49.078;8.578;2023-04-24T01:52:40;1.83;;;0.80;;
12088;SDS011;6107;49.078;8.578;2023-04-24T01:55:06;1.10;;;0.70;;
12088;SDS011;6107;49.078;8.578;2023-04-24T01:57:32;2.97;;;1.00;;
12088;SDS011;6107;49.078;8.578;2023-04-24T01:59:58;1.30;;;1.00;;
12088;SDS011;6107;49.078;8.578;2023-04-24T02:02:24;2.70;;;0.97;;
12088;SDS011;6107;49.078;8.578;2023-04-24T02:04:52;3.97;;;1.10;;
12088;SDS011;6107;49.078;8.578;2023-04-24T02:07:18;2.57;;;1.10;;
12088;SDS011;6107;49.078;8.578;2023-04-24T02:09:43;1.80;;;1.17;;
12088;SDS011;6107;49.078;8.578;2023-04-24T02:12:09;1.83;;;1.00;;
12088;SDS011;6107;49.078;8.578;2023-04-24T02:14:34;2.13;;;1.17;;
12088;SDS011;6107;49.078;8.578;2023-04-24T02:17:00;3.00;;;1.10;;
12088;SDS011;6107;49.078;8.578;2023-04-24T02:19:25;1.33;;;1.00;;
12088;SDS011;6107;49.078;8.578;2023-04-24T02:21:51;2.67;;;0.90;;
12088;SDS011;6107;49.078;8.578;2023-04-24T02:24:16;1.53;;;1.00;;
12088;SDS011;6107;49.078;8.578;2023-04-24T02:26:42;2.33;;;1.10;;
12088;SDS011;6107;49.078;8.578;2023-04-24T02:29:07;4.43;;;1.00;;
12088;SDS011;6107;49.078;8.578;2023-04-24T02:31:33;1.67;;;1.00;;
12088;SDS011;6107;49.078;8.578;2023-04-24T02:33:59;2.83;;;1.20;;
12088;SDS011;6107;49.078;8.578;2023-04-24T02:36:24;1.73;;;1.20;;
12088;SDS011;6107;49.078;8.578;2023-04-24T02:38:50;2.30;;;1.20;;
12088;SDS011;6107;49.078;8.578;2023-04-24T02:41:15;1.43;;;1.00;;
12088;SDS011;6107;49.078;8.578;2023-04-24T02:43:41;1.83;;;0.97;;
12088;SDS011;6107;49.078;8.578;2023-04-24T02:46:06;2.23;;;1.10;;
12088;SDS011;6107;49.078;8.578;2023-04-24T02:48:32;2.03;;;1.17;;
12088;SDS011;6107;49.078;8.578;2023-04-24T02:50:57;2.27;;;0.93;;
12088;SDS011;6107;49.078;8.578;2023-04-24T02:53:23;1.70;;;0.97;;
12088;SDS011;6107;49.078;8.578;2023-04-24T02:55:48;4.97;;;1.03;;
12088;SDS011;6107;49.078;8.578;2023-04-24T02:58:14;1.60;;;0.97;;
12088;SDS011;6107;49.078;8.578;2023-04-24T03:00:40;1.90;;;1.30;;
12088;SDS011;6107;49.078;8.578;2023-04-24T03:03:06;3.83;;;1.13;;
12088;SDS011;6107;49.078;8.578;2023-04-24T03:05:32;2.70;;;1.20;;
12088;SDS011;6107;49.078;8.578;2023-04-24T03:07:57;1.70;;;1.00;;
12088;SDS011;6107;49.078;8.578;2023-04-24T03:10:23;3.30;;;1.30;;
12088;SDS011;6107;49.078;8.578;2023-04-24T03:12:48;2.50;;;1.10;;
12088;SDS011;6107;49.078;8.578;2023-04-24T03:15:14;1.23;;;0.87;;
12088;SDS011;6107;49.078;8.578;2023-04-24T03:17:40;1.13;;;0.93;;
12088;SDS011;6107;49.078;8.578;2023-04-24T03:20:06;2.27;;;1.10;;
12088;SDS011;6107;49.078;8.578;2023-04-24T03:22:33;1.40;;;1.00;;
12088;SDS011;6107;49.078;8.578;2023-04-24T03:24:59;5.73;;;1.10;;
12088;SDS011;6107;49.078;8.578;2023-04-24T03:27:25;1.60;;;1.20;;
12088;SDS011;6107;49.078;8.578;2023-04-24T03:29:51;2.47;;;1.10;;
12088;SDS011;6107;49.078;8.578;2023-04-24T03:32:20;1.30;;;1.10;;
12088;SDS011;6107;49.078;8.578;2023-04-24T03:34:49;1.33;;;1.20;;
12088;SDS011;6107;49.078;8.578;2023-04-24T03:37:15;2.63;;;1.70;;
12088;SDS011;6107;49.078;8.578;2023-04-24T03:39:41;3.77;;;1.53;;
12088;SDS011;6107;49.078;8.578;2023-04-24T03:42:06;6.53;;;2.20;;
12088;SDS011;6107;49.078;8.578;2023-04-24T03:44:33;2.20;;;1.80;;
12088;SDS011;6107;49.078;8.578;2023-04-24T03:46:59;3.07;;;1.63;;
12088;SDS011;6107;49.078;8.578;2023-04-24T03:49:25;3.37;;;2.27;;
12088;SDS011;6107;49.078;8.578;2023-04-24T03:51:50;2.30;;;2.00;;
12088;SDS011;6107;49.078;8.578;2023-04-24T03:54:17;3.53;;;2.00;;
12088;SDS011;6107;49.078;8.578;2023-04-24T03:56:43;4.13;;;2.10;;
12088;SDS011;6107;49.078;8.578;2023-04-24T03:59:09;3.60;;;1.90;;
12088;SDS011;6107;49.078;8.578;2023-04-24T04:01:34;2.13;;;1.90;;
12088;SDS011;6107;49.078;8.578;2023-04-24T04:04:02;3.83;;;2.13;;
12088;SDS011;6107;49.078;8.578;2023-04-24T04:06:28;3.03;;;2.20;;
12088;SDS011;6107;49.078;8.578;2023-04-24T04:08:55;3.07;;;1.83;;
12088;SDS011;6107;49.078;8.578;2023-04-24T04:11:21;4.63;;;2.13;;
12088;SDS011;6107;49.078;8.578;2023-04-24T04:13:47;2.87;;;1.83;;
12088;SDS011;6107;49.078;8.578;2023-04-24T04:16:13;3.10;;;2.40;;
12088;SDS011;6107;49.078;8.578;2023-04-24T04:18:38;4.07;;;2.10;;
12088;SDS011;6107;49.078;8.578;2023-04-24T04:21:04;4.17;;;1.90;;
12088;SDS011;6107;49.078;8.578;2023-04-24T04:23:30;3.20;;;2.10;;
12088;SDS011;6107;49.078;8.578;2023-04-24T04:25:56;3.47;;;2.10;;
12088;SDS011;6107;49.078;8.578;2023-04-24T04:28:22;3.17;;;1.93;;
12088;SDS011;6107;49.078;8.578;2023-04-24T04:30:49;2.93;;;2.00;;
12088;SDS011;6107;49.078;8.578;2023-04-24T04:33:18;2.57;;;1.97;;
12088;SDS011;6107;49.078;8.578;2023-04-24T04:35:47;2.30;;;1.83;;
12088;SDS011;6107;49.078;8.578;2023-04-24T04:38:17;3.23;;;2.20;;
12088;SDS011;6107;49.078;8.578;2023-04-24T04:40:43;2.00;;;1.80;;
12088;SDS011;6107;49.078;8.578;2023-04-24T04:43:09;2.40;;;1.93;;
12088;SDS011;6107;49.078;8.578;2023-04-24T04:45:35;2.53;;;1.70;;
12088;SDS011;6107;49.078;8.578;2023-04-24T04:48:02;2.50;;;2.00;;
12088;SDS011;6107;49.078;8.578;2023-04-24T04:50:28;3.10;;;1.70;;
12088;SDS011;6107;49.078;8.578;2023-04-24T04:52:54;2.13;;;1.73;;
12088;SDS011;6107;49.078;8.578;2023-04-24T04:55:19;2.30;;;1.80;;
12088;SDS011;6107;49.078;8.578;2023-04-24T04:57:45;4.50;;;1.97;;
12088;SDS011;6107;49.078;8.578;2023-04-24T05:00:11;2.60;;;1.77;;
12088;SDS011;6107;49.078;8.578;2023-04-24T05:02:37;2.80;;;2.07;;
12088;SDS011;6107;49.078;8.578;2023-04-24T05:05:04;2.90;;;2.00;;
12088;SDS011;6107;49.078;8.578;2023-04-24T05:07:30;3.53;;;2.00;;
12088;SDS011;6107;49.078;8.578;2023-04-24T05:09:56;3.17;;;2.13;;
12088;SDS011;6107;49.078;8.578;2023-04-24T05:12:21;3.20;;;2.10;;
12088;SDS011;6107;49.078;8.578;2023-04-24T05:14:47;2.27;;;1.90;;
12088;SDS011;6107;49.078;8.578;2023-04-24T05:17:12;2.57;;;2.17;;
12088;SDS011;6107;49.078;8.578;2023-04-24T05:19:38;2.83;;;2.40;;
12088;SDS011;6107;49.078;8.578;2023-04-24T05:22:03;3.70;;;2.47;;
12088;SDS011;6107;49.078;8.578;2023-04-24T05:24:31;3.03;;;2.50;;
12088;SDS011;6107;49.078;8.578;2023-04-24T05:27:00;3.93;;;2.40;;
12088;SDS011;6107;49.078;8.578;2023-04-24T05:29:27;3.83;;;2.00;;
12088;SDS011;6107;49.078;8.578;2023-04-24T05:31:55;5.37;;;2.50;;
12088;SDS011;6107;49.078;8.578;2023-04-24T05:34:21;3.07;;;2.40;;
12088;SDS011;6107;49.078;8.578;2023-04-24T05:36:46;3.93;;;2.60;;
12088;SDS011;6107;49.078;8.578;2023-04-24T05:39:12;4.20;;;2.57;;
12088;SDS011;6107;49.078;8.578;2023-04-24T05:41:38;2.40;;;2.20;;
12088;SDS011;6107;49.078;8.578;2023-04-24T05:44:04;4.00;;;2.50;;
12088;SDS011;6107;49.078;8.578;2023-04-24T05:46:29;3.43;;;2.30;;
12088;SDS011;6107;49.078;8.578;2023-04-24T05:48:55;4.53;;;2.50;;
12088;SDS011;6107;49.078;8.578;2023-04-24T05:51:20;2.70;;;2.50;;
12088;SDS011;6107;49.078;8.578;2023-04-24T05:53:46;2.97;;;2.47;;
12088;SDS011;6107;49.078;8.578;2023-04-24T05:56:11;3.97;;;2.60;;
12088;SDS011;6107;49.078;8.578;2023-04-24T05:58:37;4.00;;;2.60;;
12088;SDS011;6107;49.078;8.578;2023-04-24T06:01:03;2.70;;;2.37;;
12088;SDS011;6107;49.078;8.578;2023-04-24T06:03:28;2.70;;;2.30;;
12088;SDS011;6107;49.078;8.578;2023-04-24T06:05:54;3.83;;;2.10;;
12088;SDS011;6107;49.078;8.578;2023-04-24T06:08:19;3.20;;;2.37;;
12088;SDS011;6107;49.078;8.578;2023-04-24T06:10:45;2.50;;;2.17;;
12088;SDS011;6107;49.078;8.578;2023-04-24T06:13:10;3.10;;;2.20;;
12088;SDS011;6107;49.078;8.578;2023-04-24T06:15:36;2.33;;;2.13;;
12088;SDS011;6107;49.078;8.578;2023-04-24T06:18:02;3.20;;;2.20;;
12088;SDS011;6107;49.078;8.578;2023-04-24T06:20:27;3.23;;;2.23;;
12088;SDS011;6107;49.078;8.578;2023-04-24T06:22:53;4.53;;;2.30;;
12088;SDS011;6107;49.078;8.578;2023-04-24T06:25:19;2.80;;;2.20;;
12088;SDS011;6107;49.078;8.578;2023-04-24T06:27:44;5.17;;;2.20;;
12088;SDS011;6107;49.078;8.578;2023-04-24T06:30:10;3.10;;;2.10;;
12088;SDS011;6107;49.078;8.578;2023-04-24T06:32:36;3.20;;;2.10;;
12088;SDS011;6107;49.078;8.578;2023-04-24T06:35:01;2.40;;;2.20;;
12088;SDS011;6107;49.078;8.578;2023-04-24T06:37:27;5.27;;;2.13;;
12088;SDS011;6107;49.078;8.578;2023-04-24T06:39:52;2.67;;;2.00;;
12088;SDS011;6107;49.078;8.578;2023-04-24T06:42:18;2.87;;;2.07;;
12088;SDS011;6107;49.078;8.578;2023-04-24T06:44:45;2.37;;;1.90;;
12088;SDS011;6107;49.078;8.578;2023-04-24T06:47:11;5.57;;;2.27;;
12088;SDS011;6107;49.078;8.578;2023-04-24T06:49:38;3.67;;;2.40;;
12088;SDS011;6107;49.078;8.578;2023-04-24T06:52:04;3.30;;;2.50;;
12088;SDS011;6107;49.078;8.578;2023-04-24T06:54:30;4.93;;;2.27;;
12088;SDS011;6107;49.078;8.578;2023-04-24T06:56:57;3.30;;;2.10;;
12088;SDS011;6107;49.078;8.578;2023-04-24T06:59:25;2.60;;;2.10;;
12088;SDS011;6107;49.078;8.578;2023-04-24T07:01:51;3.83;;;2.00;;
12088;SDS011;6107;49.078;8.578;2023-04-24T07:04:17;3.77;;;2.10;;
12088;SDS011;6107;49.078;8.578;2023-04-24T07:06:43;4.83;;;2.23;;
12088;SDS011;6107;49.078;8.578;2023-04-24T07:09:10;2.90;;;2.13;;
12088;SDS011;6107;49.078;8.578;2023-04-24T07:11:36;4.17;;;2.40;;
12088;SDS011;6107;49.078;8.578;2023-04-24T07:14:03;3.27;;;2.40;;
12088;SDS011;6107;49.078;8.578;2023-04-24T07:16:28;3.20;;;2.30;;
12088;SDS011;6107;49.078;8.578;2023-04-24T07:18:55;2.90;;;2.10;;
12088;SDS011;6107;49.078;8.578;2023-04-24T07:21:20;6.10;;;2.37;;
12088;SDS011;6107;49.078;8.578;2023-04-24T07:23:46;3.97;;;2.57;;
12088;SDS011;6107;49.078;8.578;2023-04-24T07:26:11;3.77;;;2.07;;
12088;SDS011;6107;49.078;8.578;2023-04-24T07:28:39;3.00;;;2.03;;
12088;SDS011;6107;49.078;8.578;2023-04-24T07:31:05;2.40;;;2.07;;
12088;SDS011;6107;49.078;8.578;2023-04-24T07:33:30;3.03;;;2.00;;
12088;SDS011;6107;49.078;8.578;2023-04-24T07:35:56;3.00;;;2.10;;
12088;SDS011;6107;49.078;8.578;2023-04-24T07:38:21;4.10;;;2.10;;
12088;SDS011;6107;49.078;8.578;2023-04-24T07:40:47;4.07;;;2.20;;
12088;SDS011;6107;49.078;8.578;2023-04-24T07:43:13;2.63;;;1.90;;
12088;SDS011;6107;49.078;8.578;2023-04-24T07:45:39;1.90;;;1.70;;
12088;SDS011;6107;49.078;8.578;2023-04-24T07:48:05;3.30;;;1.73;;
12088;SDS011;6107;49.078;8.578;2023-04-24T07:50:31;5.07;;;2.17;;
12088;SDS011;6107;49.078;8.578;2023-04-24T07:52:57;3.20;;;2.13;;
12088;SDS011;6107;49.078;8.578;2023-04-24T07:55:22;2.43;;;1.93;;
12088;SDS011;6107;49.078;8.578;2023-04-24T07:57:48;4.50;;;2.00;;
12088;SDS011;6107;49.078;8.578;2023-04-24T08:00:14;3.40;;;2.10;;
12088;SDS011;6107;49.078;8.578;2023-04-24T08:02:39;2.47;;;2.10;;
12088;SDS011;6107;49.078;8.578;2023-04-24T08:05:05;3.37;;;1.97;;
12088;SDS011;6107;49.078;8.578;2023-04-24T08:07:31;2.07;;;1.77;;
12088;SDS011;6107;49.078;8.578;2023-04-24T08:09:56;4.07;;;1.80;;
12088;SDS011;6107;49.078;8.578;2023-04-24T08:12:22;2.37;;;1.60;;
12088;SDS011;6107;49.078;8.578;2023-04-24T08:14:47;1.30;;;1.10;;
12088;SDS011;6107;49.078;8.578;2023-04-24T08:17:13;2.37;;;1.20;;
12088;SDS011;6107;49.078;8.578;2023-04-24T08:19:39;1.47;;;1.30;;
12088;SDS011;6107;49.078;8.578;2023-04-24T08:22:12;1.53;;;1.37;;
12088;SDS011;6107;49.078;8.578;2023-04-24T08:24:38;2.77;;;1.40;;
12088;SDS011;6107;49.078;8.578;2023-04-24T08:27:03;2.10;;;1.20;;
12088;SDS011;6107;49.078;8.578;2023-04-24T08:29:29;3.10;;;1.40;;
12088;SDS011;6107;49.078;8.578;2023-04-24T08:31:54;2.30;;;1.40;;
12088;SDS011;6107;49.078;8.578;2023-04-24T08:34:20;1.50;;;1.20;;
12088;SDS011;6107;49.078;8.578;2023-04-24T08:36:46;2.27;;;1.77;;
12088;SDS011;6107;49.078;8.578;2023-04-24T08:39:12;1.73;;;1.57;;
12088;SDS011;6107;49.078;8.578;2023-04-24T08:41:37;2.93;;;1.83;;
12088;SDS011;6107;49.078;8.578;2023-04-24T08:44:03;2.20;;;1.70;;
12088;SDS011;6107;49.078;8.578;2023-04-24T08:46:30;3.73;;;1.80;;
12088;SDS011;6107;49.078;8.578;2023-04-24T08:48:56;2.43;;;1.30;;
12088;SDS011;6107;49.078;8.578;2023-04-24T08:51:22;4.10;;;2.00;;
12088;SDS011;6107;49.078;8.578;2023-04-24T08:53:50;1.40;;;1.30;;
12088;SDS011;6107;49.078;8.578;2023-04-24T08:56:18;1.50;;;1.10;;
12088;SDS011;6107;49.078;8.578;2023-04-24T08:58:45;1.13;;;1.03;;
12088;SDS011;6107;49.078;8.578;2023-04-24T09:01:11;1.10;;;1.00;;
12088;SDS011;6107;49.078;8.578;2023-04-24T09:03:37;1.27;;;1.13;;
12088;SDS011;6107;49.078;8.578;2023-04-24T09:06:03;3.77;;;1.40;;
12088;SDS011;6107;49.078;8.578;2023-04-24T09:08:31;2.57;;;1.60;;
12088;SDS011;6107;49.078;8.578;2023-04-24T09:10:58;2.03;;;1.47;;
12088;SDS011;6107;49.078;8.578;2023-04-24T09:13:26;3.30;;;1.50;;
12088;SDS011;6107;49.078;8.578;2023-04-24T09:15:52;1.80;;;1.50;;
12088;SDS011;6107;49.078;8.578;2023-04-24T09:18:19;2.63;;;1.50;;
12088;SDS011;6107;49.078;8.578;2023-04-24T09:21:04;2.47;;;1.67;;
12088;SDS011;6107;49.078;8.578;2023-04-24T09:23:32;1.70;;;1.60;;
12088;SDS011;6107;49.078;8.578;2023-04-24T09:25:58;2.00;;;1.80;;
12088;SDS011;6107;49.078;8.578;2023-04-24T09:28:29;2.47;;;1.73;;
12088;SDS011;6107;49.078;8.578;2023-04-24T09:31:06;2.27;;;1.90;;
12088;SDS011;6107;49.078;8.578;2023-04-24T09:33:56;3.80;;;2.10;;
12088;SDS011;6107;49.078;8.578;2023-04-24T09:36:30;3.50;;;2.10;;
12088;SDS011;6107;49.078;8.578;2023-04-24T09:39:05;4.57;;;2.30;;
12088;SDS011;6107;49.078;8.578;2023-04-24T09:41:33;3.23;;;2.10;;
12088;SDS011;6107;49.078;8.578;2023-04-24T09:44:10;3.00;;;2.37;;
12088;SDS011;6107;49.078;8.578;2023-04-24T09:46:37;5.60;;;2.60;;
12088;SDS011;6107;49.078;8.578;2023-04-24T09:49:07;3.37;;;2.43;;
12088;SDS011;6107;49.078;8.578;2023-04-24T09:51:35;5.47;;;2.60;;
12088;SDS011;6107;49.078;8.578;2023-04-24T09:54:02;6.80;;;3.37;;
12088;SDS011;6107;49.078;8.578;2023-04-24T09:56:32;7.27;;;2.80;;
12088;SDS011;6107;49.078;8.578;2023-04-24T09:59:04;3.67;;;2.87;;
12088;SDS011;6107;49.078;8.578;2023-04-24T10:01:33;3.53;;;3.00;;
12088;SDS011;6107;49.078;8.578;2023-04-24T10:03:59;4.43;;;3.03;;
12088;SDS011;6107;49.078;8.578;2023-04-24T10:06:32;3.33;;;2.80;;
12088;SDS011;6107;49.078;8.578;2023-04-24T10:08:58;5.23;;;3.00;;
12088;SDS011;6107;49.078;8.578;2023-04-24T10:11:27;5.20;;;3.10;;
12088;SDS011;6107;49.078;8.578;2023-04-24T10:13:53;5.73;;;2.97;;
12088;SDS011;6107;49.078;8.578;2023-04-24T10:16:21;4.50;;;3.10;;
12088;SDS011;6107;49.078;8.578;2023-04-24T10:18:47;3.60;;;2.70;;
12088;SDS011;6107;49.078;8.578;2023-04-24T10:21:14;3.97;;;2.70;;
12088;SDS011;6107;49.078;8.578;2023-04-24T10:23:40;2.77;;;2.40;;
12088;SDS011;6107;49.078;8.578;2023-04-24T10:26:07;3.90;;;2.43;;
12088;SDS011;6107;49.078;8.578;2023-04-24T10:28:34;2.37;;;2.00;;
12088;SDS011;6107;49.078;8.578;2023-04-24T10:31:02;4.23;;;2.53;;
12088;SDS011;6107;49.078;8.578;2023-04-24T10:33:29;3.63;;;2.50;;
12088;SDS011;6107;49.078;8.578;2023-04-24T10:35:55;2.67;;;2.20;;
12088;SDS011;6107;49.078;8.578;2023-04-24T10:38:24;3.17;;;2.13;;
12088;SDS011;6107;49.078;8.578;2023-04-24T10:40:51;3.23;;;2.00;;
12088;SDS011;6107;49.078;8.578;2023-04-24T10:43:33;4.03;;;2.13;;
12088;SDS011;6107;49.078;8.578;2023-04-24T10:46:00;2.37;;;1.87;;
12088;SDS011;6107;49.078;8.578;2023-04-24T10:48:30;2.53;;;2.33;;
12088;SDS011;6107;49.078;8.578;2023-04-24T10:50:57;2.53;;;2.33;;
12088;SDS011;6107;49.078;8.578;2023-04-24T10:53:23;3.80;;;2.30;;
12088;SDS011;6107;49.078;8.578;2023-04-24T10:56:02;3.37;;;2.67;;
12088;SDS011;6107;49.078;8.578;2023-04-24T10:58:40;3.50;;;2.67;;
12088;SDS011;6107;49.078;8.578;2023-04-24T11:01:10;4.10;;;2.60;;
12088;SDS011;6107;49.078;8.578;2023-04-24T11:03:55;3.80;;;2.47;;
12088;SDS011;6107;49.078;8.578;2023-04-24T11:06:35;3.13;;;2.80;;
12088;SDS011;6107;49.078;8.578;2023-04-24T11:09:05;4.43;;;2.67;;
12088;SDS011;6107;49.078;8.578;2023-04-24T11:11:32;3.37;;;2.90;;
12088;SDS011;6107;49.078;8.578;2023-04-24T11:16:26;4.17;;;3.20;;
12088;SDS011;6107;49.078;8.578;2023-04-24T11:29:45;4.50;;;3.00;;
12088;SDS011;6107;49.078;8.578;2023-04-24T11:34:58;3.73;;;2.90;;
12088;SDS011;6107;49.078;8.578;2023-04-24T11:37:26;3.97;;;3.17;;
12088;SDS011;6107;49.078;8.578;2023-04-24T11:39:59;6.20;;;3.53;;
12088;SDS011;6107;49.078;8.578;2023-04-24T11:42:24;3.67;;;2.97;;
12088;SDS011;6107;49.078;8.578;2023-04-24T11:44:54;3.43;;;3.00;;
12088;SDS011;6107;49.078;8.578;2023-04-24T11:47:26;3.90;;;3.10;;
12088;SDS011;6107;49.078;8.578;2023-04-24T11:49:53;5.07;;;3.10;;
12088;SDS011;6107;49.078;8.578;2023-04-24T11:52:19;4.10;;;3.23;;
12088;SDS011;6107;49.078;8.578;2023-04-24T11:54:48;3.70;;;2.80;;
12088;SDS011;6107;49.078;8.578;2023-04-24T11:57:21;4.20;;;3.03;;
12088;SDS011;6107;49.078;8.578;2023-04-24T11:59:47;3.60;;;2.90;;
12088;SDS011;6107;49.078;8.578;2023-04-24T12:02:23;3.77;;;2.83;;
12088;SDS011;6107;49.078;8.578;2023-04-24T12:04:49;4.57;;;2.73;;
12088;SDS011;6107;49.078;8.578;2023-04-24T12:07:16;3.67;;;2.70;;
12088;SDS011;6107;49.078;8.578;2023-04-24T12:09:42;4.53;;;3.33;;
12088;SDS011;6107;49.078;8.578;2023-04-24T12:12:09;5.97;;;3.23;;
12088;SDS011;6107;49.078;8.578;2023-04-24T12:14:43;5.27;;;3.63;;
12088;SDS011;6107;49.078;8.578;2023-04-24T12:17:10;3.77;;;3.10;;
12088;SDS011;6107;49.078;8.578;2023-04-24T12:19:36;5.30;;;3.47;;
12088;SDS011;6107;49.078;8.578;2023-04-24T12:22:02;4.33;;;3.50;;
12088;SDS011;6107;49.078;8.578;2023-04-24T12:24:30;5.43;;;3.47;;
12088;SDS011;6107;49.078;8.578;2023-04-24T12:26:57;7.83;;;3.40;;
12088;SDS011;6107;49.078;8.578;2023-04-24T12:29:23;6.67;;;3.67;;
12088;SDS011;6107;49.078;8.578;2023-04-24T12:31:53;6.97;;;3.77;;
12088;SDS011;6107;49.078;8.578;2023-04-24T12:34:23;4.57;;;3.13;;
12088;SDS011;6107;49.078;8.578;2023-04-24T12:36:51;5.10;;;3.47;;
12088;SDS011;6107;49.078;8.578;2023-04-24T12:39:17;4.20;;;3.23;;
12088;SDS011;6107;49.078;8.578;2023-04-24T12:41:50;6.73;;;3.60;;
12088;SDS011;6107;49.078;8.578;2023-04-24T12:44:32;5.83;;;3.53;;
12088;SDS011;6107;49.078;8.578;2023-04-24T12:47:00;5.17;;;3.40;;
12088;SDS011;6107;49.078;8.578;2023-04-24T12:49:26;5.03;;;3.80;;
12088;SDS011;6107;49.078;8.578;2023-04-24T12:51:53;4.73;;;3.50;;
12088;SDS011;6107;49.078;8.578;2023-04-24T12:54:19;4.23;;;3.03;;
12088;SDS011;6107;49.078;8.578;2023-04-24T12:56:44;4.87;;;3.03;;
12088;SDS011;6107;49.078;8.578;2023-04-24T12:59:10;5.93;;;3.73;;
12088;SDS011;6107;49.078;8.578;2023-04-24T13:01:35;4.20;;;3.50;;
12088;SDS011;6107;49.078;8.578;2023-04-24T13:04:01;5.40;;;3.90;;
12088;SDS011;6107;49.078;8.578;2023-04-24T13:06:26;5.20;;;3.70;;
12088;SDS011;6107;49.078;8.578;2023-04-24T13:08:52;5.03;;;3.57;;
12088;SDS011;6107;49.078;8.578;2023-04-24T13:11:19;5.57;;;3.30;;
12088;SDS011;6107;49.078;8.578;2023-04-24T13:13:46;5.53;;;3.63;;
12088;SDS011;6107;49.078;8.578;2023-04-24T13:16:12;5.07;;;3.70;;
12088;SDS011;6107;49.078;8.578;2023-04-24T13:18:37;3.60;;;3.00;;
12088;SDS011;6107;49.078;8.578;2023-04-24T13:21:03;4.10;;;3.10;;
12088;SDS011;6107;49.078;8.578;2023-04-24T13:23:28;6.63;;;3.17;;
12088;SDS011;6107;49.078;8.578;2023-04-24T13:25:54;4.30;;;3.20;;
12088;SDS011;6107;49.078;8.578;2023-04-24T13:28:22;2.77;;;2.40;;
12088;SDS011;6107;49.078;8.578;2023-04-24T13:30:48;3.70;;;2.67;;
12088;SDS011;6107;49.078;8.578;2023-04-24T13:33:13;4.07;;;2.83;;
12088;SDS011;6107;49.078;8.578;2023-04-24T13:35:39;4.57;;;2.73;;
12088;SDS011;6107;49.078;8.578;2023-04-24T13:38:04;4.63;;;2.53;;
12088;SDS011;6107;49.078;8.578;2023-04-24T13:40:31;3.63;;;2.70;;
12088;SDS011;6107;49.078;8.578;2023-04-24T13:42:57;6.00;;;2.47;;
12088;SDS011;6107;49.078;8.578;2023-04-24T13:45:22;3.73;;;2.77;;
12088;SDS011;6107;49.078;8.578;2023-04-24T13:47:48;4.93;;;2.63;;
12088;SDS011;6107;49.078;8.578;2023-04-24T13:50:13;6.07;;;3.23;;
12088;SDS011;6107;49.078;8.578;2023-04-24T13:52:40;6.07;;;3.43;;
12088;SDS011;6107;49.078;8.578;2023-04-24T13:55:05;4.67;;;3.67;;
12088;SDS011;6107;49.078;8.578;2023-04-24T13:57:31;4.10;;;3.30;;
12088;SDS011;6107;49.078;8.578;2023-04-24T13:59:57;5.27;;;3.47;;
12088;SDS011;6107;49.078;8.578;2023-04-24T14:02:26;7.83;;;3.60;;
12088;SDS011;6107;49.078;8.578;2023-04-24T14:04:52;6.03;;;3.53;;
12088;SDS011;6107;49.078;8.578;2023-04-24T14:07:17;6.67;;;3.20;;
12088;SDS011;6107;49.078;8.578;2023-04-24T14:09:43;5.80;;;3.40;;
12088;SDS011;6107;49.078;8.578;2023-04-24T14:12:08;4.37;;;2.83;;
12088;SDS011;6107;49.078;8.578;2023-04-24T14:14:34;4.20;;;3.17;;
12088;SDS011;6107;49.078;8.578;2023-04-24T14:17:00;5.03;;;3.13;;
12088;SDS011;6107;49.078;8.578;2023-04-24T14:19:25;4.70;;;3.33;;
12088;SDS011;6107;49.078;8.578;2023-04-24T14:21:51;5.77;;;3.27;;
12088;SDS011;6107;49.078;8.578;2023-04-24T14:24:16;3.73;;;3.30;;
12088;SDS011;6107;49.078;8.578;2023-04-24T14:26:42;5.00;;;3.10;;
12088;SDS011;6107;49.078;8.578;2023-04-24T14:29:07;5.20;;;2.97;;
12088;SDS011;6107;49.078;8.578;2023-04-24T14:31:33;4.73;;;3.50;;
12088;SDS011;6107;49.078;8.578;2023-04-24T14:33:58;5.63;;;3.10;;
12088;SDS011;6107;49.078;8.578;2023-04-24T14:36:24;4.17;;;2.70;;
12088;SDS011;6107;49.078;8.578;2023-04-24T14:38:49;4.53;;;2.60;;
12088;SDS011;6107;49.078;8.578;2023-04-24T14:41:15;3.97;;;2.37;;
12088;SDS011;6107;49.078;8.578;2023-04-24T14:43:40;2.83;;;1.90;;
12088;SDS011;6107;49.078;8.578;2023-04-24T14:46:06;3.30;;;2.30;;
12088;SDS011;6107;49.078;8.578;2023-04-24T14:48:32;4.20;;;2.70;;
12088;SDS011;6107;49.078;8.578;2023-04-24T14:50:57;2.93;;;2.27;;
12088;SDS011;6107;49.078;8.578;2023-04-24T14:53:23;3.90;;;2.60;;
12088;SDS011;6107;49.078;8.578;2023-04-24T14:55:48;3.00;;;2.70;;
12088;SDS011;6107;49.078;8.578;2023-04-24T14:58:14;3.90;;;2.60;;
12088;SDS011;6107;49.078;8.578;2023-04-24T15:00:39;5.50;;;2.60;;
12088;SDS011;6107;49.078;8.578;2023-04-24T15:03:05;2.90;;;2.60;;
12088;SDS011;6107;49.078;8.578;2023-04-24T15:05:31;4.17;;;2.97;;
12088;SDS011;6107;49.078;8.578;2023-04-24T15:07:56;4.07;;;2.80;;
12088;SDS011;6107;49.078;8.578;2023-04-24T15:10:22;3.73;;;2.53;;
12088;SDS011;6107;49.078;8.578;2023-04-24T15:12:48;3.40;;;2.57;;